Terminal Aerodrome Forecast
Issued by NWS

Home | Current Version | Previous Version | Text Only | Print | Product List | Glossary On
Versions: 1 2 3 4 5 6 7 8 9 10 11 12 13 14 15 16 17 18 19 20 21 22 23 24 25 26 27 28
000
FTUS43 KLOT 261455 AAA
TAFORD
TAF AMD
KORD 261455Z 2615/2718 23008KT P6SM FEW030 BKN150 OVC250
     FM270100 18006KT P6SM VCSH SCT050 OVC090
     FM270230 14004KT 6SM -SHRA OVC050 PROB30 2703/2705 4SM -TSRA
      OVC040CB
     FM270600 VRB03KT 6SM BR VCSH SCT025 BKN040
     FM271200 04006KT 6SM BR SCT025 BKN040=

USA.gov is the U.S. government's official web portal to all federal, state and local government web resources and services.